Time;durP1;ratioP1;P1;durP2;ratioP2;P2;SDS_P1;SDS_P2;PMS_P1;PMS_P2;Temp;Humidity;BMP_temperature;BMP_pressure;BME280_temperature;BME280_humidity;BME280_pressure;Samples;Min_cycle;Max_cycle;Signal;HPM_P1;HPM_P2
2021/09/17 00:00:44;;;;;;;9.00;7.30;;;16.80;80.50;;;;;;4948502;28;20451;-46
2021/09/17 00:03:11;;;;;;;9.27;8.37;;;16.70;80.70;;;;;;4950464;28;21062;-46
2021/09/17 00:05:38;;;;;;;10.97;8.97;;;16.70;80.90;;;;;;4953683;28;20470;-46
2021/09/17 00:08:08;;;;;;;10.43;8.93;;;16.70;80.80;;;;;;4950582;28;20525;-46
2021/09/17 00:10:35;;;;;;;9.87;8.87;;;16.60;80.90;;;;;;4950654;28;20495;-46
2021/09/17 00:13:02;;;;;;;8.63;7.83;;;16.60;80.90;;;;;;4951527;28;20482;-45
2021/09/17 00:15:29;;;;;;;7.90;7.10;;;16.60;80.80;;;;;;4951946;28;20447;-46
2021/09/17 00:17:56;;;;;;;7.80;7.10;;;16.60;81.00;;;;;;4950827;28;20443;-46
2021/09/17 00:20:23;;;;;;;10.10;8.20;;;16.50;81.00;;;;;;4948457;28;20559;-46
2021/09/17 00:22:50;;;;;;;10.53;9.27;;;16.50;81.20;;;;;;4950733;28;20932;-46
2021/09/17 00:25:17;;;;;;;8.60;7.80;;;16.40;81.50;;;;;;4962301;28;20534;-46
2021/09/17 00:27:44;;;;;;;10.47;8.50;;;16.40;81.50;;;;;;4951409;28;20534;-47
2021/09/17 00:30:11;;;;;;;10.43;9.43;;;16.40;81.50;;;;;;4952222;28;20494;-46
2021/09/17 00:32:38;;;;;;;11.27;8.40;;;16.40;81.60;;;;;;4951475;28;20499;-46
2021/09/17 00:35:05;;;;;;;8.53;7.63;;;16.40;81.50;;;;;;4959901;28;20456;-46
2021/09/17 00:37:31;;;;;;;10.37;9.27;;;16.30;81.50;;;;;;4954304;28;20457;-46
2021/09/17 00:39:58;;;;;;;8.70;7.90;;;16.30;81.50;;;;;;4951763;28;20522;-46
2021/09/17 00:42:25;;;;;;;10.10;9.00;;;16.30;81.50;;;;;;4950687;28;20458;-46
2021/09/17 00:44:52;;;;;;;10.00;9.00;;;16.20;81.60;;;;;;4950388;28;20463;-46
2021/09/17 00:47:19;;;;;;;10.23;9.23;;;16.20;81.80;;;;;;4950847;28;20455;-46
2021/09/17 00:49:46;;;;;;;9.70;8.70;;;16.10;81.80;;;;;;4949556;28;20501;-46
2021/09/17 00:52:13;;;;;;;9.80;8.80;;;16.10;81.80;;;;;;4950962;28;20494;-46
2021/09/17 00:54:41;;;;;;;9.97;8.73;;;16.10;81.90;;;;;;4947231;28;20473;-46
2021/09/17 00:57:07;;;;;;;9.67;8.53;;;16.10;81.90;;;;;;4945648;28;20461;-46
2021/09/17 00:59:34;;;;;;;9.50;8.20;;;16.00;82.00;;;;;;4950295;28;20443;-46
2021/09/17 01:02:03;;;;;;;11.10;10.00;;;16.00;82.10;;;;;;4950307;28;20811;-46
2021/09/17 01:04:30;;;;;;;12.30;8.57;;;16.00;82.10;;;;;;4951405;28;20471;-46
2021/09/17 01:06:58;;;;;;;10.13;9.10;;;15.90;82.10;;;;;;4955237;28;20458;-46
2021/09/17 01:09:25;;;;;;;9.23;8.30;;;15.90;82.20;;;;;;4952956;28;20866;-46
2021/09/17 01:11:52;;;;;;;12.70;8.83;;;15.90;82.30;;;;;;4948469;28;20808;-46
2021/09/17 01:14:19;;;;;;;12.13;9.30;;;15.90;82.20;;;;;;4947665;28;21017;-46
2021/09/17 01:16:46;;;;;;;10.57;9.47;;;15.90;82.20;;;;;;4951229;28;20470;-46
2021/09/17 01:19:13;;;;;;;12.57;9.83;;;15.90;82.30;;;;;;4948196;28;20474;-46
2021/09/17 01:21:39;;;;;;;12.53;9.97;;;15.80;82.30;;;;;;4950895;28;20458;-46
2021/09/17 01:24:06;;;;;;;11.10;9.10;;;15.80;82.50;;;;;;4950619;28;20973;-46
2021/09/17 01:26:33;;;;;;;11.17;9.10;;;15.80;82.50;;;;;;4948088;28;20457;-46
2021/09/17 01:28:59;;;;;;;12.80;10.30;;;15.80;82.60;;;;;;4951207;28;20462;-46
2021/09/17 01:31:26;;;;;;;9.73;8.37;;;15.80;82.70;;;;;;4945908;28;20463;-46
2021/09/17 01:33:53;;;;;;;10.10;9.10;;;15.80;82.80;;;;;;4952372;28;20854;-46
2021/09/17 01:36:19;;;;;;;10.63;8.70;;;15.80;82.70;;;;;;4951027;28;20875;-46
2021/09/17 01:38:46;;;;;;;11.17;9.43;;;15.80;82.70;;;;;;4951248;28;20531;-46
2021/09/17 01:41:13;;;;;;;12.13;9.73;;;15.80;82.80;;;;;;4946861;28;20455;-46
2021/09/17 01:43:40;;;;;;;13.40;9.30;;;15.80;82.80;;;;;;4949571;28;20459;-46
2021/09/17 01:46:06;;;;;;;10.70;9.60;;;15.80;82.80;;;;;;4950351;28;20467;-46
2021/09/17 01:48:33;;;;;;;13.73;10.60;;;15.70;82.70;;;;;;4949959;28;20459;-46
2021/09/17 01:51:00;;;;;;;12.07;10.87;;;15.70;82.60;;;;;;4951370;28;20493;-46
2021/09/17 01:53:27;;;;;;;10.53;9.43;;;15.80;82.60;;;;;;4949448;28;20443;-46
2021/09/17 01:55:54;;;;;;;11.10;10.00;;;15.70;82.70;;;;;;4952029;28;20443;-46
2021/09/17 01:58:21;;;;;;;11.10;9.90;;;15.70;82.70;;;;;;4948045;28;20447;-46
2021/09/17 02:00:48;;;;;;;11.37;10.17;;;15.70;82.80;;;;;;4948284;28;20442;-46
2021/09/17 02:03:15;;;;;;;11.20;10.00;;;15.70;82.90;;;;;;4946064;28;20965;-46
2021/09/17 02:05:42;;;;;;;11.80;10.63;;;15.70;82.90;;;;;;4943693;28;20791;-46
2021/09/17 02:08:09;;;;;;;11.60;9.40;;;15.70;82.90;;;;;;4951738;28;20526;-46
2021/09/17 02:10:36;;;;;;;12.00;9.53;;;15.70;83.00;;;;;;4949458;29;20495;-46
2021/09/17 02:13:04;;;;;;;10.13;9.13;;;15.70;83.00;;;;;;4949783;28;20487;-45
2021/09/17 02:15:31;;;;;;;11.57;10.00;;;15.70;83.20;;;;;;4950199;28;20470;-46
2021/09/17 02:17:57;;;;;;;9.47;8.47;;;15.70;83.10;;;;;;4949217;28;20499;-46
2021/09/17 02:20:24;;;;;;;9.30;8.40;;;15.70;82.90;;;;;;4949036;28;20460;-43
2021/09/17 02:22:51;;;;;;;10.43;8.53;;;15.70;82.90;;;;;;4946070;28;20462;-43
2021/09/17 02:25:18;;;;;;;9.07;8.20;;;15.70;82.90;;;;;;4946535;28;20460;-43
2021/09/17 02:27:45;;;;;;;8.97;8.07;;;15.70;82.80;;;;;;4947399;28;20451;-43
2021/09/17 02:30:12;;;;;;;9.50;7.50;;;15.70;82.90;;;;;;4952103;28;20855;-43
2021/09/17 02:32:39;;;;;;;7.83;7.13;;;15.70;82.90;;;;;;4950129;28;20474;-43
2021/09/17 02:35:07;;;;;;;8.30;7.50;;;15.70;83.00;;;;;;4949571;28;20455;-43
2021/09/17 02:37:34;;;;;;;9.30;8.07;;;15.70;83.00;;;;;;4952573;28;20450;-43
2021/09/17 02:40:02;;;;;;;8.67;7.83;;;15.70;83.10;;;;;;4947567;29;21036;-43
2021/09/17 02:42:28;;;;;;;8.40;7.60;;;15.70;83.10;;;;;;4950096;28;20473;-43
2021/09/17 02:44:55;;;;;;;8.80;7.90;;;15.70;83.10;;;;;;4946868;28;20448;-43
2021/09/17 02:47:22;;;;;;;7.63;7.03;;;15.70;83.20;;;;;;4943985;28;20459;-43
2021/09/17 02:49:49;;;;;;;8.13;7.33;;;15.70;83.10;;;;;;4950105;28;20930;-43
2021/09/17 02:52:15;;;;;;;10.30;8.50;;;15.70;83.10;;;;;;4945266;28;20449;-43
2021/09/17 02:54:42;;;;;;;10.40;8.27;;;15.80;82.90;;;;;;4949345;28;20453;-47
2021/09/17 02:57:09;;;;;;;8.23;7.53;;;15.70;83.00;;;;;;4947399;28;20817;-43
2021/09/17 02:59:36;;;;;;;9.23;8.30;;;15.70;83.00;;;;;;4947695;28;20806;-43
2021/09/17 03:02:02;;;;;;;9.80;8.70;;;15.70;83.10;;;;;;4947569;28;20463;-43
2021/09/17 03:04:31;;;;;;;10.13;8.30;;;15.70;83.10;;;;;;4949264;28;20465;-43
2021/09/17 03:06:58;;;;;;;9.47;8.57;;;15.70;83.10;;;;;;4946782;28;20874;-43
2021/09/17 03:09:25;;;;;;;13.00;10.17;;;15.70;83.20;;;;;;4944502;28;20452;-43
2021/09/17 03:11:51;;;;;;;8.30;7.37;;;15.70;83.20;;;;;;4950242;28;21004;-43
2021/09/17 03:14:19;;;;;;;8.40;7.70;;;15.70;83.10;;;;;;4949622;28;20495;-43
2021/09/17 03:16:45;;;;;;;8.50;7.80;;;15.70;83.10;;;;;;4953801;28;20820;-43
2021/09/17 03:19:12;;;;;;;9.07;8.20;;;15.70;83.20;;;;;;4951696;28;20454;-43
2021/09/17 03:21:39;;;;;;;14.40;8.97;;;15.70;83.40;;;;;;4947585;28;20458;-43
2021/09/17 03:24:06;;;;;;;9.57;8.10;;;15.70;83.30;;;;;;4947451;28;20482;-42
2021/09/17 03:26:32;;;;;;;13.23;8.60;;;15.70;83.30;;;;;;4951628;28;20454;-42
2021/09/17 03:29:00;;;;;;;14.50;9.97;;;15.70;83.30;;;;;;4949681;28;21040;-42
2021/09/17 03:31:26;;;;;;;8.20;7.50;;;15.70;83.10;;;;;;4951593;28;20504;-42
2021/09/17 03:33:54;;;;;;;8.33;7.60;;;15.70;83.10;;;;;;4949353;28;20458;-42
2021/09/17 03:36:21;;;;;;;8.37;7.43;;;15.70;82.90;;;;;;4953948;28;20451;-42
2021/09/17 03:38:47;;;;;;;10.23;7.47;;;15.70;82.70;;;;;;4951123;28;20454;-43
2021/09/17 03:41:15;;;;;;;9.77;8.37;;;15.70;82.70;;;;;;4954332;28;20479;-42
2021/09/17 03:43:41;;;;;;;9.00;8.10;;;15.70;82.80;;;;;;4951652;28;20460;-42
2021/09/17 03:46:08;;;;;;;8.73;7.93;;;15.70;82.70;;;;;;4951357;28;20455;-42
2021/09/17 03:48:35;;;;;;;8.57;7.77;;;15.70;82.70;;;;;;4948922;28;21029;-42
2021/09/17 03:51:01;;;;;;;8.23;7.43;;;15.70;82.70;;;;;;4952835;28;20482;-42
2021/09/17 03:53:28;;;;;;;11.20;10.17;;;15.70;82.60;;;;;;4950014;28;20444;-42
2021/09/17 03:55:55;;;;;;;9.77;8.63;;;15.70;82.80;;;;;;4949867;28;20453;-42
2021/09/17 03:58:22;;;;;;;8.90;8.00;;;15.60;82.90;;;;;;4948766;28;20459;-43
2021/09/17 04:00:49;;;;;;;10.07;8.47;;;15.60;82.90;;;;;;4946286;28;20827;-42
2021/09/17 04:03:16;;;;;;;8.90;8.13;;;15.60;83.00;;;;;;4950118;28;20467;-43
2021/09/17 04:05:42;;;;;;;9.33;7.67;;;15.50;83.00;;;;;;4950978;28;21023;-43
2021/09/17 04:08:09;;;;;;;8.50;7.70;;;15.50;83.00;;;;;;4948129;28;20459;-43
2021/09/17 04:10:36;;;;;;;8.87;7.97;;;15.60;82.80;;;;;;4951949;28;20603;-43
2021/09/17 04:13:03;;;;;;;8.40;7.60;;;15.50;82.80;;;;;;4950122;28;20471;-43
2021/09/17 04:15:29;;;;;;;9.43;7.97;;;15.50;82.80;;;;;;4947650;28;20495;-43
2021/09/17 04:17:56;;;;;;;8.70;7.90;;;15.50;82.70;;;;;;4952170;28;21199;-43
2021/09/17 04:20:23;;;;;;;8.53;7.73;;;15.50;82.70;;;;;;4952779;28;20862;-43
2021/09/17 04:22:49;;;;;;;10.10;8.70;;;15.50;82.70;;;;;;4948740;29;20506;-43
2021/09/17 04:25:17;;;;;;;9.83;8.83;;;15.40;82.80;;;;;;4953123;29;20447;-43
2021/09/17 04:27:46;;;;;;;9.43;8.53;;;15.40;82.90;;;;;;4956594;28;20940;-43
2021/09/17 04:30:15;;;;;;;11.50;9.10;;;15.40;82.90;;;;;;4951569;28;20578;-43
2021/09/17 04:32:43;;;;;;;10.43;9.00;;;15.40;82.90;;;;;;4952247;28;20467;-42
2021/09/17 04:35:11;;;;;;;9.27;8.37;;;15.40;82.60;;;;;;4949965;28;20821;-42
2021/09/17 04:37:40;;;;;;;10.50;9.43;;;15.40;82.50;;;;;;4951492;28;20463;-42
2021/09/17 04:40:08;;;;;;;10.70;9.60;;;15.40;82.60;;;;;;4948143;28;20546;-42
2021/09/17 04:42:35;;;;;;;10.13;8.70;;;15.30;82.60;;;;;;4953723;28;20452;-42
2021/09/17 04:45:03;;;;;;;10.30;8.87;;;15.30;82.80;;;;;;4950632;28;20459;-42
2021/09/17 04:47:30;;;;;;;10.50;9.40;;;15.20;82.90;;;;;;4954188;28;20450;-42
2021/09/17 04:49:59;;;;;;;11.90;8.57;;;15.20;83.10;;;;;;4948570;28;20565;-42
2021/09/17 04:52:42;;;;;;;11.10;9.90;;;15.20;83.20;;;;;;4952131;28;20448;-43
2021/09/17 04:55:09;;;;;;;9.30;8.40;;;15.10;83.20;;;;;;4947316;28;20451;-43
2021/09/17 04:57:36;;;;;;;10.43;8.87;;;15.10;83.30;;;;;;4949710;28;20568;-43
2021/09/17 05:00:06;;;;;;;10.73;9.70;;;15.00;83.30;;;;;;4949437;28;20960;-42
2021/09/17 05:02:33;;;;;;;9.40;8.40;;;15.00;83.30;;;;;;4949122;28;21010;-42
2021/09/17 05:05:01;;;;;;;9.70;8.70;;;15.00;83.30;;;;;;4945443;28;20469;-42
2021/09/17 05:07:27;;;;;;;10.37;9.37;;;15.00;83.10;;;;;;4951381;28;20474;-42
2021/09/17 05:09:55;;;;;;;11.83;9.07;;;15.00;83.20;;;;;;4956465;28;20443;-43
2021/09/17 05:12:21;;;;;;;10.80;9.70;;;14.90;83.20;;;;;;4946066;29;20499;-43
2021/09/17 05:14:48;;;;;;;11.33;9.30;;;14.90;83.30;;;;;;4946475;28;20476;-43
2021/09/17 05:17:15;;;;;;;12.30;11.10;;;14.90;83.30;;;;;;4948336;28;20458;-43
2021/09/17 05:19:42;;;;;;;13.10;10.23;;;14.90;83.30;;;;;;4948069;28;20467;-43
2021/09/17 05:22:08;;;;;;;12.63;9.40;;;14.80;83.40;;;;;;4950794;28;20458;-43
2021/09/17 05:24:35;;;;;;;10.83;9.23;;;14.80;83.60;;;;;;4948163;28;21035;-43
2021/09/17 05:27:02;;;;;;;9.70;8.73;;;14.80;83.60;;;;;;4966788;28;20451;-43
2021/09/17 05:29:29;;;;;;;10.93;9.40;;;14.80;83.70;;;;;;4947039;28;20478;-43
2021/09/17 05:31:56;;;;;;;13.33;10.13;;;14.90;83.60;;;;;;4954089;28;20486;-43
2021/09/17 05:34:23;;;;;;;11.40;9.67;;;14.90;83.50;;;;;;4949551;28;20455;-43
2021/09/17 05:36:50;;;;;;;12.03;9.63;;;14.90;83.40;;;;;;4950675;28;20443;-43
2021/09/17 05:39:17;;;;;;;11.20;10.10;;;14.90;83.40;;;;;;4948244;28;20448;-42
2021/09/17 05:41:43;;;;;;;10.73;9.67;;;14.90;83.50;;;;;;4951043;28;20459;-42
2021/09/17 05:44:10;;;;;;;12.27;11.07;;;14.90;83.60;;;;;;4944211;28;20467;-43
2021/09/17 05:46:37;;;;;;;12.20;10.50;;;14.90;83.50;;;;;;4950052;28;20443;-42
2021/09/17 05:49:03;;;;;;;11.80;9.63;;;14.90;83.50;;;;;;4945562;28;20459;-43
2021/09/17 05:51:30;;;;;;;11.30;10.10;;;14.90;83.60;;;;;;4941819;29;20492;-43
2021/09/17 05:54:05;;;;;;;11.23;10.03;;;14.90;83.70;;;;;;4950028;28;20455;-43
2021/09/17 05:56:32;;;;;;;13.77;10.73;;;14.90;83.80;;;;;;4952529;28;20933;-43
2021/09/17 05:58:58;;;;;;;13.13;11.10;;;14.90;83.80;;;;;;4948327;28;20467;-43
2021/09/17 06:01:25;;;;;;;12.17;10.83;;;14.90;83.90;;;;;;4952198;28;20453;-43
2021/09/17 06:03:52;;;;;;;11.97;10.70;;;14.90;84.00;;;;;;4949296;28;20459;-46
2021/09/17 06:06:20;;;;;;;13.57;10.83;;;14.90;84.20;;;;;;4948854;28;20633;-43
2021/09/17 06:08:48;;;;;;;13.30;12.00;;;14.90;84.30;;;;;;4950586;28;20464;-43
2021/09/17 06:11:16;;;;;;;13.57;11.10;;;14.90;84.40;;;;;;4950383;28;20562;-43
2021/09/17 06:13:44;;;;;;;10.73;9.63;;;14.90;84.40;;;;;;4949390;28;20486;-42
2021/09/17 06:16:11;;;;;;;13.10;11.80;;;15.00;84.50;;;;;;4945804;28;21002;-42
2021/09/17 06:18:42;;;;;;;12.37;11.13;;;15.00;84.60;;;;;;4948145;28;20460;-42
2021/09/17 06:21:10;;;;;;;12.10;10.80;;;15.00;84.60;;;;;;4947560;28;20957;-42
2021/09/17 06:23:37;;;;;;;12.43;10.57;;;15.10;84.60;;;;;;4951768;28;20464;-42
2021/09/17 06:26:11;;;;;;;13.20;11.90;;;15.10;84.70;;;;;;4951641;28;21007;-43
2021/09/17 06:28:38;;;;;;;12.33;10.80;;;15.20;84.60;;;;;;4949564;28;20474;-43
2021/09/17 06:31:05;;;;;;;12.00;10.47;;;15.30;84.60;;;;;;4946315;28;20501;-42
2021/09/17 06:33:31;;;;;;;13.40;11.87;;;15.30;84.50;;;;;;4947121;28;20941;-43
2021/09/17 06:35:58;;;;;;;12.47;11.20;;;15.40;84.30;;;;;;4947415;28;20448;-43
2021/09/17 06:38:25;;;;;;;13.03;11.70;;;15.40;84.20;;;;;;4949710;29;20444;-43
2021/09/17 06:40:52;;;;;;;12.40;11.10;;;15.50;84.10;;;;;;4951568;29;20450;-43
2021/09/17 06:43:18;;;;;;;14.60;10.97;;;15.50;84.10;;;;;;4944874;28;20470;-43
2021/09/17 06:45:45;;;;;;;11.00;9.70;;;15.50;83.90;;;;;;4952834;28;20454;-43
2021/09/17 06:48:12;;;;;;;11.63;10.30;;;15.60;83.70;;;;;;4946208;28;21083;-43
2021/09/17 06:50:39;;;;;;;14.50;11.10;;;15.60;83.50;;;;;;4945323;28;20766;-43
2021/09/17 06:53:05;;;;;;;12.50;11.20;;;15.60;83.60;;;;;;4947370;28;21117;-43
2021/09/17 06:55:33;;;;;;;14.40;10.93;;;15.70;83.30;;;;;;4947716;28;20440;-43
2021/09/17 06:58:02;;;;;;;11.70;9.90;;;15.70;83.30;;;;;;4947927;28;21136;-43
2021/09/17 07:00:32;;;;;;;16.17;10.97;;;15.80;83.10;;;;;;4941411;28;21037;-43
2021/09/17 07:02:59;;;;;;;11.90;10.80;;;15.80;82.80;;;;;;4951295;28;20892;-43
2021/09/17 07:05:28;;;;;;;14.70;10.47;;;15.90;82.60;;;;;;4949073;28;20460;-43
2021/09/17 07:08:06;;;;;;;12.10;10.37;;;16.00;82.10;;;;;;4952480;28;20449;-43
2021/09/17 07:10:35;;;;;;;14.93;10.50;;;16.00;82.10;;;;;;4946764;28;20879;-43
2021/09/17 07:13:02;;;;;;;13.80;10.10;;;16.10;82.10;;;;;;4946070;28;20980;-43
2021/09/17 07:15:29;;;;;;;12.57;10.70;;;16.10;81.90;;;;;;4950530;28;20455;-43
2021/09/17 07:17:56;;;;;;;14.83;11.03;;;16.20;81.80;;;;;;4947727;28;20477;-43
2021/09/17 07:20:23;;;;;;;13.30;11.73;;;16.20;81.80;;;;;;4948649;28;20475;-43
2021/09/17 07:22:50;;;;;;;15.60;10.93;;;16.20;81.00;;;;;;4945036;28;20548;-43
2021/09/17 07:25:19;;;;;;;13.33;10.53;;;16.30;80.90;;;;;;4949596;28;20453;-43
2021/09/17 07:27:46;;;;;;;12.47;11.33;;;16.30;80.80;;;;;;4946149;28;20455;-43
2021/09/17 07:30:14;;;;;;;16.97;11.20;;;16.40;80.50;;;;;;4948226;28;20466;-43
2021/09/17 07:32:41;;;;;;;13.33;11.00;;;16.40;80.50;;;;;;4946629;28;20542;-43
2021/09/17 07:35:13;;;;;;;12.27;10.90;;;16.50;80.30;;;;;;4947758;28;20865;-43
2021/09/17 07:37:39;;;;;;;13.90;10.53;;;16.50;80.20;;;;;;4950808;28;20958;-44
2021/09/17 07:40:07;;;;;;;12.10;10.80;;;16.60;80.00;;;;;;4950305;28;21112;-43
2021/09/17 07:42:34;;;;;;;14.43;10.30;;;16.60;80.10;;;;;;4962367;28;20471;-43
2021/09/17 07:45:02;;;;;;;13.00;10.47;;;16.60;80.20;;;;;;4945079;28;20466;-43
2021/09/17 07:47:29;;;;;;;11.63;10.30;;;16.70;80.20;;;;;;4944405;28;20455;-43
2021/09/17 07:49:55;;;;;;;13.77;11.37;;;16.80;80.20;;;;;;4953221;28;20456;-43
2021/09/17 07:52:22;;;;;;;11.90;9.60;;;16.80;80.10;;;;;;4948536;28;20487;-43
2021/09/17 07:54:49;;;;;;;14.13;10.93;;;16.90;80.10;;;;;;4947299;28;20458;-43
2021/09/17 07:57:16;;;;;;;16.67;10.57;;;16.90;79.70;;;;;;4945883;28;20833;-43
2021/09/17 07:59:42;;;;;;;11.00;9.60;;;17.00;79.30;;;;;;4947813;29;20490;-43
2021/09/17 08:02:09;;;;;;;12.13;9.83;;;17.00;79.30;;;;;;4945597;28;20464;-43
2021/09/17 08:04:38;;;;;;;16.63;10.53;;;17.10;79.40;;;;;;4951102;28;20980;-43
2021/09/17 08:07:06;;;;;;;11.23;9.70;;;17.10;79.10;;;;;;4943169;28;20543;-43
2021/09/17 08:09:33;;;;;;;14.87;9.67;;;17.20;79.00;;;;;;4948308;28;20455;-43
2021/09/17 08:12:00;;;;;;;10.83;9.70;;;17.30;78.60;;;;;;4945698;28;21124;-43
2021/09/17 08:14:27;;;;;;;13.80;9.83;;;17.40;77.90;;;;;;4954822;28;20516;-43
2021/09/17 08:16:54;;;;;;;12.10;10.10;;;17.40;77.70;;;;;;4951214;28;21327;-43
2021/09/17 08:19:21;;;;;;;12.53;9.90;;;17.50;77.70;;;;;;4951813;28;20447;-43
2021/09/17 08:21:48;;;;;;;11.47;9.97;;;17.60;77.70;;;;;;4936839;28;20918;-43
2021/09/17 08:24:18;;;;;;;12.70;10.13;;;17.60;77.30;;;;;;4951065;28;20462;-43
2021/09/17 08:26:50;;;;;;;10.60;9.50;;;17.70;77.20;;;;;;4951400;28;20462;-43
2021/09/17 08:29:18;;;;;;;9.67;8.67;;;17.80;76.60;;;;;;4948329;28;20471;-43
2021/09/17 08:31:44;;;;;;;12.53;10.47;;;17.90;76.50;;;;;;4948872;28;20490;-43
2021/09/17 08:34:12;;;;;;;12.33;10.50;;;17.90;76.70;;;;;;4951040;28;20483;-43
2021/09/17 08:36:38;;;;;;;11.20;10.10;;;18.00;76.70;;;;;;4952947;28;20455;-43
2021/09/17 08:39:06;;;;;;;12.17;10.17;;;18.00;76.60;;;;;;4945703;28;20456;-43
2021/09/17 08:41:34;;;;;;;14.23;10.60;;;18.10;76.30;;;;;;4949640;28;20464;-43
2021/09/17 08:44:01;;;;;;;13.43;10.07;;;18.20;76.50;;;;;;4952783;28;20786;-43
2021/09/17 08:46:28;;;;;;;13.43;10.33;;;18.20;76.40;;;;;;4950131;28;20460;-43
2021/09/17 08:48:56;;;;;;;15.20;10.77;;;18.30;76.40;;;;;;4945629;28;20493;-43
2021/09/17 08:51:23;;;;;;;11.40;9.90;;;18.30;76.00;;;;;;4947163;28;20482;-43
2021/09/17 08:53:50;;;;;;;12.97;10.03;;;18.40;75.90;;;;;;4949752;28;20944;-43
2021/09/17 08:56:18;;;;;;;13.50;10.63;;;18.50;75.80;;;;;;4953599;28;20455;-43
2021/09/17 08:58:46;;;;;;;13.63;10.30;;;18.60;75.30;;;;;;4952365;28;20460;-43
2021/09/17 09:01:35;;;;;;;16.43;9.90;;;18.80;74.80;;;;;;4948122;28;20457;-43
2021/09/17 09:04:07;;;;;;;11.37;9.70;;;19.00;74.20;;;;;;4946294;28;20529;-43
2021/09/17 09:06:39;;;;;;;16.33;9.20;;;18.90;74.10;;;;;;4952481;28;20467;-43
2021/09/17 09:09:17;;;;;;;12.17;9.40;;;18.90;74.10;;;;;;4944872;29;20454;-43
2021/09/17 09:11:49;;;;;;;12.30;9.60;;;18.90;73.50;;;;;;4946480;28;20494;-43
2021/09/17 09:14:17;;;;;;;12.27;11.10;;;18.90;73.30;;;;;;4945025;28;20474;-43
2021/09/17 09:16:53;;;;;;;10.70;9.40;;;19.00;73.30;;;;;;4948216;28;21141;-43
2021/09/17 09:19:29;;;;;;;12.67;9.63;;;19.10;73.20;;;;;;4949532;28;20449;-43
2021/09/17 09:22:07;;;;;;;10.30;8.10;;;19.20;73.20;;;;;;4949679;28;20450;-43
2021/09/17 09:24:41;;;;;;;10.43;8.47;;;19.30;73.00;;;;;;4943524;28;20467;-43
2021/09/17 09:27:13;;;;;;;11.70;8.60;;;19.40;72.80;;;;;;4953227;28;20472;-43
2021/09/17 09:29:43;;;;;;;12.20;9.27;;;19.50;72.60;;;;;;4952282;28;20917;-43
2021/09/17 09:32:30;;;;;;;13.13;8.80;;;19.60;72.20;;;;;;4950797;28;20495;-43
2021/09/17 09:35:00;;;;;;;11.30;8.30;;;19.60;72.40;;;;;;4945851;28;20474;-43
2021/09/17 09:37:30;;;;;;;11.90;8.07;;;19.60;72.30;;;;;;4947364;28;20462;-43
2021/09/17 09:40:08;;;;;;;9.63;8.00;;;19.70;72.30;;;;;;4948812;28;20459;-43
2021/09/17 09:42:46;;;;;;;10.60;8.73;;;19.80;72.20;;;;;;4952141;28;20443;-43
2021/09/17 09:45:24;;;;;;;12.97;9.20;;;19.90;71.50;;;;;;4946926;28;20968;-43
2021/09/17 09:47:56;;;;;;;11.97;8.67;;;19.90;71.20;;;;;;4952149;28;20790;-43
2021/09/17 09:50:26;;;;;;;12.83;9.60;;;20.00;71.00;;;;;;4949231;28;20474;-43
2021/09/17 09:52:55;;;;;;;11.63;9.27;;;20.10;70.90;;;;;;4947876;28;20491;-43
2021/09/17 09:55:22;;;;;;;11.50;8.80;;;20.10;70.70;;;;;;4945291;28;20956;-43
2021/09/17 09:57:49;;;;;;;11.27;8.90;;;20.20;70.60;;;;;;4950376;28;20541;-43
2021/09/17 10:00:17;;;;;;;11.57;9.63;;;20.30;70.20;;;;;;4942180;28;20469;-43
2021/09/17 10:02:45;;;;;;;13.87;9.10;;;20.40;69.20;;;;;;4949647;28;20451;-43
2021/09/17 10:05:16;;;;;;;12.13;8.93;;;20.40;69.30;;;;;;4951516;28;20972;-43
2021/09/17 10:07:44;;;;;;;13.47;10.13;;;20.40;69.50;;;;;;4949469;28;21017;-43
2021/09/17 10:10:13;;;;;;;15.00;10.50;;;20.50;69.70;;;;;;4951341;28;20506;-43
2021/09/17 10:12:40;;;;;;;14.93;9.57;;;20.50;69.50;;;;;;4947194;28;20518;-43
2021/09/17 10:15:09;;;;;;;9.97;8.97;;;20.50;69.50;;;;;;4946973;28;21035;-43
2021/09/17 10:17:38;;;;;;;11.77;9.83;;;20.60;69.60;;;;;;4950247;28;20550;-43
2021/09/17 10:20:10;;;;;;;14.17;10.40;;;20.70;69.10;;;;;;4943697;28;20961;-43
2021/09/17 10:22:37;;;;;;;14.70;10.30;;;20.70;69.20;;;;;;4943945;28;20463;-43
2021/09/17 10:25:19;;;;;;;15.77;9.93;;;20.70;69.00;;;;;;4943828;28;20459;-43
2021/09/17 10:28:07;;;;;;;15.73;10.73;;;20.80;68.80;;;;;;4947858;28;20944;-43
2021/09/17 10:30:39;;;;;;;12.90;10.73;;;20.90;67.90;;;;;;4949748;28;20562;-43
2021/09/17 10:33:21;;;;;;;12.07;10.50;;;20.90;68.10;;;;;;4947233;28;20486;-43
2021/09/17 10:35:48;;;;;;;10.43;9.17;;;21.00;68.50;;;;;;4945398;28;20463;-43
2021/09/17 10:38:24;;;;;;;14.17;9.63;;;21.00;68.70;;;;;;4947441;28;20546;-43
2021/09/17 10:40:54;;;;;;;11.20;10.10;;;21.10;67.90;;;;;;4949838;28;20469;-43
2021/09/17 10:43:21;;;;;;;15.00;11.77;;;21.20;67.80;;;;;;4947888;29;20463;-43
2021/09/17 10:45:57;;;;;;;16.73;12.17;;;21.20;67.50;;;;;;4944644;28;20802;-43
2021/09/17 10:48:28;;;;;;;17.30;11.90;;;21.20;66.80;;;;;;4946083;28;20481;-43
2021/09/17 10:50:58;;;;;;;10.40;9.23;;;21.30;66.50;;;;;;4953603;28;20457;-43
2021/09/17 10:53:40;;;;;;;11.43;8.80;;;21.30;66.40;;;;;;4950876;28;20486;-43
2021/09/17 10:56:15;;;;;;;10.60;8.50;;;21.30;66.30;;;;;;4947302;28;20530;-43
2021/09/17 10:58:46;;;;;;;9.50;8.47;;;21.30;66.40;;;;;;4946819;29;20447;-43
2021/09/17 11:01:15;;;;;;;8.47;7.57;;;21.30;66.70;;;;;;4945372;28;21215;-43
2021/09/17 11:03:44;;;;;;;7.53;6.50;;;21.30;67.00;;;;;;4949475;29;20994;-43
2021/09/17 11:06:18;;;;;;;8.43;7.10;;;21.30;67.20;;;;;;4941635;28;20538;-43
2021/09/17 11:08:55;;;;;;;11.43;8.50;;;21.30;67.30;;;;;;4948393;28;20811;-43
2021/09/17 11:11:41;;;;;;;7.93;6.30;;;21.30;66.80;;;;;;4943532;28;20812;-43
2021/09/17 11:14:12;;;;;;;8.80;6.63;;;21.30;67.10;;;;;;4946542;28;20557;-43
2021/09/17 11:16:38;;;;;;;9.87;7.13;;;21.30;66.10;;;;;;4950613;28;20463;-43
2021/09/17 11:19:11;;;;;;;7.77;6.17;;;21.30;66.40;;;;;;4948867;28;20451;-43
2021/09/17 11:21:43;;;;;;;7.30;6.00;;;21.40;66.70;;;;;;4949299;28;20805;-43
2021/09/17 11:24:19;;;;;;;7.17;5.70;;;21.40;66.90;;;;;;4947369;28;20549;-43
2021/09/17 11:26:48;;;;;;;6.83;6.17;;;21.50;66.40;;;;;;4946065;28;20468;-44
2021/09/17 11:29:17;;;;;;;6.37;5.50;;;21.50;66.20;;;;;;4948037;28;20458;-43
2021/09/17 11:31:45;;;;;;;9.70;5.50;;;21.70;65.90;;;;;;4941656;28;20447;-43
2021/09/17 11:34:14;;;;;;;10.53;6.10;;;21.70;65.00;;;;;;4945335;28;20451;-43
2021/09/17 11:36:43;;;;;;;6.87;5.90;;;21.90;63.90;;;;;;4949986;28;20439;-43
2021/09/17 11:39:26;;;;;;;8.87;6.50;;;21.90;64.00;;;;;;4946964;28;20450;-43
2021/09/17 11:41:59;;;;;;;9.73;6.47;;;21.90;63.90;;;;;;4946033;28;20466;-43
2021/09/17 11:44:35;;;;;;;9.67;5.40;;;21.80;63.90;;;;;;4950371;28;20971;-43
2021/09/17 11:47:05;;;;;;;5.00;4.53;;;21.90;63.70;;;;;;4946207;28;20453;-43
2021/09/17 11:49:35;;;;;;;6.50;4.70;;;21.90;63.60;;;;;;4949101;28;20949;-43
2021/09/17 11:52:05;;;;;;;7.23;5.87;;;21.90;63.20;;;;;;4944462;28;20443;-43
2021/09/17 11:54:34;;;;;;;6.37;4.90;;;21.90;63.70;;;;;;4946224;28;20440;-43
2021/09/17 11:57:12;;;;;;;7.87;5.67;;;21.90;63.50;;;;;;4950999;28;20455;-43
2021/09/17 11:59:44;;;;;;;6.33;5.63;;;21.80;64.20;;;;;;4953348;29;20455;-43
2021/09/17 12:02:19;;;;;;;6.70;5.90;;;21.70;64.10;;;;;;4953892;28;20444;-43
2021/09/17 12:05:08;;;;;;;6.63;5.97;;;21.70;63.70;;;;;;4948883;28;20450;-43
2021/09/17 12:07:36;;;;;;;7.10;5.60;;;21.70;63.90;;;;;;4955735;28;20481;-43
2021/09/17 12:10:14;;;;;;;5.83;5.23;;;21.60;63.40;;;;;;4952603;28;20553;-43
2021/09/17 12:12:43;;;;;;;8.63;6.70;;;21.60;63.40;;;;;;4951069;28;20494;-44
2021/09/17 12:15:13;;;;;;;6.33;4.90;;;21.60;63.00;;;;;;4948981;28;20465;-43
2021/09/17 12:17:58;;;;;;;6.00;4.90;;;21.50;63.20;;;;;;4947119;28;20439;-43
2021/09/17 12:20:45;;;;;;;4.97;4.57;;;21.50;63.70;;;;;;4952808;28;20538;-43
2021/09/17 12:23:18;;;;;;;6.40;3.77;;;21.40;64.10;;;;;;4945829;28;20856;-44
2021/09/17 12:25:46;;;;;;;5.37;4.87;;;21.40;64.60;;;;;;4950887;28;20513;-43
2021/09/17 12:28:19;;;;;;;5.17;4.67;;;21.50;65.10;;;;;;4950149;28;20859;-43
2021/09/17 12:30:46;;;;;;;4.57;4.17;;;21.40;64.60;;;;;;4952091;28;20451;-43
2021/09/17 12:33:22;;;;;;;4.93;4.43;;;21.40;65.20;;;;;;4948808;28;20499;-43
2021/09/17 12:35:51;;;;;;;6.40;5.80;;;21.30;65.00;;;;;;4949398;28;20462;-43
2021/09/17 12:38:23;;;;;;;7.70;5.07;;;21.30;64.90;;;;;;4947382;28;20481;-43
2021/09/17 12:40:54;;;;;;;5.10;4.60;;;21.30;65.10;;;;;;4956374;28;20442;-43
2021/09/17 12:43:41;;;;;;;4.43;4.03;;;21.20;64.60;;;;;;4951592;28;20451;-43
2021/09/17 12:46:10;;;;;;;8.13;5.53;;;21.10;64.70;;;;;;4950027;28;20877;-43